Time;durP1;ratioP1;P1;durP2;ratioP2;P2;SDS_P1;SDS_P2;PMS_P1;PMS_P2;Temp;Humidity;BMP_temperature;BMP_pressure;BME280_temperature;BME280_humidity;BME280_pressure;Samples;Min_cycle;Max_cycle;Signal;HPM_P1;HPM_P2
2023/04/24 00:00:35;;;;;;;2.73;1.80;;;;;;;10.45;100.00;99281.63;5006489;28;20220;-79
2023/04/24 00:03:02;;;;;;;3.20;1.50;;;;;;;10.49;100.00;99271.00;5003041;28;20258;-80
2023/04/24 00:05:29;;;;;;;2.43;1.70;;;;;;;10.43;100.00;99265.75;4999828;28;20199;-78
2023/04/24 00:07:55;;;;;;;4.10;1.50;;;;;;;10.49;100.00;99272.78;5004827;28;20729;-79
2023/04/24 00:10:22;;;;;;;4.60;1.40;;;;;;;10.45;100.00;99265.75;5003762;28;20207;-79
2023/04/24 00:12:48;;;;;;;2.80;1.30;;;;;;;10.29;100.00;99264.91;4997403;28;20242;-79
2023/04/24 00:15:15;;;;;;;2.50;1.50;;;;;;;10.22;100.00;99257.88;5007617;28;20203;-78
2023/04/24 00:17:41;;;;;;;2.10;1.43;;;;;;;10.03;100.00;99246.47;5000945;28;20201;-76
2023/04/24 00:20:09;;;;;;;2.80;1.80;;;;;;;10.04;100.00;99262.31;4990313;28;20199;-74
2023/04/24 00:22:36;;;;;;;1.83;1.50;;;;;;;10.13;100.00;99255.25;4981061;28;20663;-74
2023/04/24 00:25:03;;;;;;;3.40;1.47;;;;;;;10.29;100.00;99263.13;5006775;28;20243;-76
2023/04/24 00:27:29;;;;;;;1.83;1.43;;;;;;;10.45;100.00;99256.03;4996942;28;20238;-73
2023/04/24 00:29:56;;;;;;;2.33;1.43;;;;;;;10.57;100.00;99237.44;4998172;28;20253;-79
2023/04/24 00:32:22;;;;;;;2.27;1.67;;;;;;;10.76;100.00;99245.25;4994596;28;20224;-75
2023/04/24 00:34:49;;;;;;;1.63;1.40;;;;;;;10.85;100.00;99242.59;5000754;28;20204;-72
2023/04/24 00:37:15;;;;;;;3.00;1.30;;;;;;;10.87;100.00;99240.81;5000158;28;20206;-76
2023/04/24 00:39:42;;;;;;;1.40;1.20;;;;;;;11.01;100.00;99248.66;5003274;28;20669;-79
2023/04/24 00:42:09;;;;;;;2.60;1.40;;;;;;;11.01;100.00;99241.59;4985941;28;20245;-74
2023/04/24 00:44:36;;;;;;;1.80;1.20;;;;;;;10.91;100.00;99238.13;5006890;28;20203;-80
2023/04/24 00:47:02;;;;;;;1.73;1.10;;;;;;;10.87;100.00;99233.75;5003725;28;20239;-71
2023/04/24 00:49:29;;;;;;;1.77;1.20;;;;;;;10.79;100.00;99232.00;5000302;28;20200;-72
2023/04/24 00:51:56;;;;;;;2.07;1.17;;;;;;;10.67;100.00;99227.66;5010780;28;20237;-73
2023/04/24 00:54:22;;;;;;;2.20;1.20;;;;;;;10.48;100.00;99229.56;5009674;28;20253;-71
2023/04/24 00:56:51;;;;;;;3.37;1.10;;;;;;;10.45;100.00;99226.91;5003452;28;20201;-71
2023/04/24 00:59:17;;;;;;;3.40;1.50;;;;;;;10.47;100.00;99225.16;5007899;28;20238;-72
2023/04/24 01:01:45;;;;;;;1.63;1.10;;;;;;;10.48;100.00;99226.03;4989672;28;20632;-73
2023/04/24 01:04:12;;;;;;;2.50;1.30;;;;;;;10.50;100.00;99213.66;5004538;28;20217;-73
2023/04/24 01:06:39;;;;;;;2.10;1.10;;;;;;;10.61;100.00;99218.00;5007663;28;20204;-75
2023/04/24 01:09:09;;;;;;;2.63;1.33;;;;;;;10.55;100.00;99210.09;5004278;28;20462;-73
2023/04/24 01:11:36;;;;;;;2.33;1.47;;;;;;;10.59;100.00;99214.47;4998294;28;20312;-75
2023/04/24 01:14:03;;;;;;;1.63;1.03;;;;;;;10.56;100.00;99213.63;5010648;28;20237;-77
2023/04/24 01:16:30;;;;;;;2.77;1.40;;;;;;;10.54;100.00;99220.69;5003457;28;20511;-74
2023/04/24 01:18:56;;;;;;;2.37;1.30;;;;;;;10.64;100.00;99210.03;5007141;28;20212;-77
2023/04/24 01:21:27;;;;;;;1.90;1.10;;;;;;;10.77;100.00;99213.47;5000543;28;20281;-74
2023/04/24 01:23:55;;;;;;;2.40;1.40;;;;;;;10.85;100.00;99214.34;5000881;28;20197;-75
2023/04/24 01:26:22;;;;;;;3.13;1.43;;;;;;;10.91;100.00;99205.47;4999717;28;20222;-74
2023/04/24 01:28:49;;;;;;;1.80;1.20;;;;;;;10.99;100.00;99200.97;4999201;28;20200;-70
2023/04/24 01:31:15;;;;;;;2.20;1.30;;;;;;;10.96;100.00;99201.00;5005813;28;20224;-73
2023/04/24 01:33:42;;;;;;;5.03;1.40;;;;;;;11.02;100.00;99205.38;5009160;28;20229;-72
2023/04/24 01:36:11;;;;;;;1.70;1.20;;;;;;;11.02;100.00;99208.91;4984364;28;20206;-73
2023/04/24 01:38:37;;;;;;;2.67;1.50;;;;;;;11.04;100.00;99211.53;5010867;28;20206;-70
2023/04/24 01:41:04;;;;;;;1.80;1.20;;;;;;;11.04;100.00;99211.53;5009635;28;20214;-72
2023/04/24 01:43:31;;;;;;;1.27;1.17;;;;;;;11.03;100.00;99215.09;5009931;28;20208;-72
2023/04/24 01:45:57;;;;;;;2.47;1.27;;;;;;;11.02;100.00;99213.31;5007881;28;20196;-71
2023/04/24 01:48:24;;;;;;;1.47;1.30;;;;;;;11.07;100.00;99217.69;4993077;28;20205;-71
2023/04/24 01:50:50;;;;;;;3.63;1.37;;;;;;;11.10;100.00;99206.19;5006465;28;20790;-71
2023/04/24 01:53:17;;;;;;;2.13;1.50;;;;;;;11.15;100.00;99222.94;5005017;28;20224;-71
2023/04/24 01:55:43;;;;;;;2.53;1.40;;;;;;;11.17;100.00;99221.13;5006479;28;20236;-70
2023/04/24 01:58:09;;;;;;;1.90;1.33;;;;;;;11.27;100.00;99220.19;5010473;28;20196;-74
2023/04/24 02:00:36;;;;;;;2.90;1.33;;;;;;;11.43;100.00;99240.38;5004002;28;20199;-71
2023/04/24 02:03:02;;;;;;;1.57;1.20;;;;;;;11.34;100.00;99242.22;5010477;28;20235;-69
2023/04/24 02:05:29;;;;;;;2.40;1.70;;;;;;;11.23;100.00;99240.56;5009302;28;20255;-72
2023/04/24 02:07:55;;;;;;;3.00;1.57;;;;;;;11.12;100.00;99242.38;5007187;28;20236;-72
2023/04/24 02:10:21;;;;;;;1.93;1.40;;;;;;;10.88;100.00;99247.88;5008949;28;20224;-72
2023/04/24 02:12:48;;;;;;;2.73;1.00;;;;;;;10.70;100.00;99250.59;5009537;28;20736;-71
2023/04/24 02:15:14;;;;;;;2.17;1.50;;;;;;;10.68;100.00;99253.25;5010475;28;20223;-75
2023/04/24 02:17:41;;;;;;;4.27;1.20;;;;;;;10.78;100.00;99246.13;5006326;28;20749;-72
2023/04/24 02:20:07;;;;;;;1.70;1.27;;;;;;;10.84;100.00;99254.06;5009041;28;20220;-71
2023/04/24 02:22:34;;;;;;;1.97;1.27;;;;;;;10.79;100.00;99248.78;5004171;28;20223;-71
2023/04/24 02:25:00;;;;;;;2.87;1.37;;;;;;;10.85;100.00;99253.19;5006532;28;20230;-73
2023/04/24 02:27:27;;;;;;;1.53;1.20;;;;;;;10.81;100.00;99246.16;5001868;28;20630;-70
2023/04/24 02:29:53;;;;;;;2.63;1.20;;;;;;;10.85;100.00;99240.81;5006625;28;20196;-71
2023/04/24 02:32:20;;;;;;;3.83;1.30;;;;;;;10.89;100.00;99252.28;5002569;28;20227;-71
2023/04/24 02:34:46;;;;;;;2.23;1.10;;;;;;;10.79;100.00;99248.78;5005657;28;20200;-71
2023/04/24 02:37:12;;;;;;;1.57;1.40;;;;;;;10.78;100.00;99251.44;5010667;28;20239;-71
2023/04/24 02:39:39;;;;;;;4.30;1.47;;;;;;;10.75;100.00;99252.31;5009455;28;20295;-73
2023/04/24 02:42:07;;;;;;;2.30;1.27;;;;;;;10.73;100.00;99253.22;5009134;28;20216;-73
2023/04/24 02:44:34;;;;;;;4.23;1.47;;;;;;;10.83;100.00;99247.91;5010392;28;20204;-72
2023/04/24 02:47:00;;;;;;;2.73;1.50;;;;;;;10.72;100.00;99252.34;5009129;28;20657;-73
2023/04/24 02:49:27;;;;;;;2.43;1.53;;;;;;;10.70;100.00;99251.47;5009278;28;20195;-72
2023/04/24 02:51:53;;;;;;;2.70;1.30;;;;;;;10.64;100.00;99252.41;5009533;28;20256;-75
2023/04/24 02:54:19;;;;;;;1.83;1.23;;;;;;;10.62;100.00;99253.28;5009211;28;20235;-74
2023/04/24 02:56:45;;;;;;;1.97;1.50;;;;;;;10.63;100.00;99257.69;5007785;28;20231;-71
2023/04/24 02:59:12;;;;;;;2.40;1.40;;;;;;;10.57;100.00;99257.72;5009577;28;20200;-72
2023/04/24 03:01:38;;;;;;;4.33;1.57;;;;;;;10.55;100.00;99247.16;5010582;28;20616;-70
2023/04/24 03:04:05;;;;;;;2.30;1.53;;;;;;;10.49;100.00;99255.13;5009036;28;20197;-72
2023/04/24 03:06:32;;;;;;;2.77;1.60;;;;;;;10.47;100.00;99256.91;4999169;28;20481;-70
2023/04/24 03:08:59;;;;;;;3.80;1.40;;;;;;;10.43;100.00;99265.75;5004408;28;20759;-71
2023/04/24 03:11:25;;;;;;;1.50;1.37;;;;;;;10.38;100.00;99263.97;5009161;28;20235;-72
2023/04/24 03:13:52;;;;;;;3.57;1.80;;;;;;;10.36;100.00;99258.69;5009984;28;20226;-70
2023/04/24 03:16:18;;;;;;;2.43;1.60;;;;;;;10.36;100.00;99266.63;5006567;28;20204;-72
2023/04/24 03:18:44;;;;;;;1.87;1.37;;;;;;;10.42;100.00;99271.94;5006186;28;20238;-72
2023/04/24 03:21:11;;;;;;;1.83;1.27;;;;;;;10.41;100.00;99258.72;5008503;28;20252;-73
2023/04/24 03:23:37;;;;;;;2.17;1.30;;;;;;;10.45;100.00;99273.69;5008911;28;20200;-70
2023/04/24 03:26:04;;;;;;;2.53;1.30;;;;;;;10.46;100.00;99264.84;5007805;28;20623;-73
2023/04/24 03:28:30;;;;;;;1.50;1.40;;;;;;;10.67;95.52;99268.25;5004633;28;20202;-73
2023/04/24 03:30:57;;;;;;;1.37;1.27;;;;;;;10.65;95.50;99266.50;5002121;28;20213;-74
2023/04/24 03:33:23;;;;;;;1.30;1.20;;;;;;;10.63;95.99;99282.41;5004766;28;20649;-78
2023/04/24 03:35:49;;;;;;;3.13;1.30;;;;;;;10.70;97.84;99291.19;5008716;28;20203;-77
2023/04/24 03:38:16;;;;;;;1.63;1.40;;;;;;;10.70;97.04;99301.78;5009353;28;20218;-74
2023/04/24 03:40:42;;;;;;;2.40;1.30;;;;;;;10.66;94.17;99303.56;5009611;28;20231;-79
2023/04/24 03:43:08;;;;;;;1.40;1.30;;;;;;;10.61;92.56;99309.78;5002646;28;20226;-72
2023/04/24 03:45:35;;;;;;;1.90;1.50;;;;;;;10.53;89.18;99312.47;5009663;28;20641;-79
2023/04/24 03:48:01;;;;;;;2.40;1.50;;;;;;;10.38;89.73;99312.50;5007997;28;20237;-81
2023/04/24 03:50:28;;;;;;;3.40;1.60;;;;;;;10.31;87.83;99318.69;5009352;28;20198;-79
2023/04/24 03:52:55;;;;;;;2.97;1.80;;;;;;;10.05;89.31;99316.09;5006023;28;20232;-80
2023/04/24 03:55:21;;;;;;;2.10;1.90;;;;;;;9.78;90.27;99321.41;5008408;28;20722;-77
2023/04/24 03:57:48;;;;;;;1.70;1.60;;;;;;;9.65;90.67;99328.47;5002693;28;20205;-75
2023/04/24 04:00:14;;;;;;;2.40;1.67;;;;;;;9.40;91.80;99338.13;5000255;28;20614;-71
2023/04/24 04:02:41;;;;;;;1.60;1.50;;;;;;;9.16;93.52;99328.41;5009493;28;20276;-70
2023/04/24 04:05:08;;;;;;;2.93;1.70;;;;;;;8.94;95.39;99329.25;5007857;28;20197;-71
2023/04/24 04:07:34;;;;;;;1.93;1.70;;;;;;;8.94;94.88;99337.16;5001308;28;20692;-71
2023/04/24 04:10:00;;;;;;;2.80;1.70;;;;;;;8.90;94.28;99338.94;5008835;28;20228;-72
2023/04/24 04:12:27;;;;;;;2.43;1.77;;;;;;;9.01;91.57;99331.91;4990820;28;20228;-71
2023/04/24 04:14:53;;;;;;;1.77;1.60;;;;;;;8.99;91.82;99341.59;5007981;28;20205;-71
2023/04/24 04:17:19;;;;;;;1.87;1.50;;;;;;;8.83;93.09;99329.22;5009444;28;20256;-70
2023/04/24 04:19:46;;;;;;;1.90;1.63;;;;;;;8.77;94.20;99340.63;5012348;28;20254;-71
2023/04/24 04:22:12;;;;;;;2.87;1.83;;;;;;;8.55;95.34;99338.78;5042179;22;20228;-76
2023/04/24 04:24:40;;;;;;;1.90;1.70;;;;;;;8.56;95.87;99334.38;5018139;28;20197;-74
2023/04/24 04:27:07;;;;;;;1.93;1.70;;;;;;;8.36;97.14;99344.81;5018901;28;20249;-75
2023/04/24 04:29:35;;;;;;;2.03;1.80;;;;;;;8.42;98.73;99345.78;5018363;28;20611;-74
2023/04/24 04:32:02;;;;;;;2.30;1.87;;;;;;;8.28;99.35;99354.44;5026351;28;20784;-74
2023/04/24 04:34:29;;;;;;;2.10;1.90;;;;;;;8.33;100.00;99358.88;5009452;28;20196;-74
2023/04/24 04:36:55;;;;;;;3.97;1.97;;;;;;;8.47;99.22;99361.63;5031029;28;20254;-74
2023/04/24 04:39:22;;;;;;;2.33;1.90;;;;;;;8.38;99.40;99364.19;5031598;28;20289;-74
2023/04/24 04:41:48;;;;;;;2.00;1.80;;;;;;;8.33;99.46;99363.25;5026620;28;20212;-75
2023/04/24 04:44:15;;;;;;;2.83;2.10;;;;;;;8.36;99.09;99363.28;5029027;28;20219;-74
2023/04/24 04:46:42;;;;;;;2.47;2.00;;;;;;;8.41;98.61;99375.66;5027595;28;20211;-74
2023/04/24 04:49:08;;;;;;;2.83;2.10;;;;;;;8.34;98.99;99358.00;5030095;28;20314;-74
2023/04/24 04:51:34;;;;;;;3.47;2.30;;;;;;;8.21;99.59;99376.38;5026053;28;20219;-74
2023/04/24 04:54:01;;;;;;;3.03;2.10;;;;;;;8.12;100.00;99371.91;5025342;28;20215;-76
2023/04/24 04:56:27;;;;;;;3.17;2.30;;;;;;;8.11;100.00;99378.94;5025471;28;20199;-74
2023/04/24 04:58:54;;;;;;;2.37;2.10;;;;;;;8.07;99.61;99371.91;5024626;28;20249;-74
2023/04/24 05:01:21;;;;;;;3.90;2.10;;;;;;;8.01;100.00;99381.50;5022315;28;20207;-74
2023/04/24 05:03:47;;;;;;;2.80;2.43;;;;;;;8.11;97.35;99371.03;5021001;28;20250;-74
2023/04/24 05:06:14;;;;;;;2.30;2.10;;;;;;;8.20;95.64;99380.75;5024818;28;20557;-74
2023/04/24 05:08:41;;;;;;;3.33;2.40;;;;;;;8.21;94.86;99387.78;5024484;28;20200;-76
2023/04/24 05:11:07;;;;;;;3.00;2.33;;;;;;;8.25;93.76;99396.63;5028446;28;20201;-73
2023/04/24 05:13:34;;;;;;;3.83;2.37;;;;;;;8.24;93.12;99395.72;5025416;28;20644;-72
2023/04/24 05:16:06;;;;;;;3.07;2.40;;;;;;;8.27;92.39;99401.03;5028069;28;20225;-71
2023/04/24 05:18:33;;;;;;;3.87;2.80;;;;;;;8.43;91.31;99405.56;5027826;28;20229;-71
2023/04/24 05:20:59;;;;;;;4.00;2.57;;;;;;;8.49;90.80;99396.81;5029616;28;20247;-71
2023/04/24 05:23:26;;;;;;;3.13;2.53;;;;;;;8.64;89.94;99415.34;5029024;28;20238;-70
2023/04/24 05:25:52;;;;;;;3.40;2.83;;;;;;;8.81;88.54;99410.19;5029588;28;20199;-71
2023/04/24 05:28:19;;;;;;;3.37;2.67;;;;;;;8.91;88.89;99416.38;5027000;28;20682;-74
2023/04/24 05:30:46;;;;;;;5.27;2.80;;;;;;;9.01;88.24;99420.81;5029833;28;20204;-73
2023/04/24 05:33:13;;;;;;;4.13;2.80;;;;;;;9.08;87.75;99428.75;5028841;28;20227;-75
2023/04/24 05:35:45;;;;;;;5.50;3.23;;;;;;;9.05;87.28;99433.16;5029419;28;20207;-74
2023/04/24 05:38:13;;;;;;;3.93;2.80;;;;;;;8.98;87.23;99436.66;5027031;28;20230;-72
2023/04/24 05:40:39;;;;;;;3.90;3.00;;;;;;;8.87;87.11;99433.09;5027118;28;20255;-72
2023/04/24 05:43:06;;;;;;;3.67;2.77;;;;;;;8.90;87.77;99455.09;5028238;28;20258;-71
2023/04/24 05:45:34;;;;;;;3.30;2.90;;;;;;;8.96;86.97;99452.47;5027795;28;20242;-72
2023/04/24 05:48:00;;;;;;;5.33;2.90;;;;;;;9.08;86.79;99456.94;5029196;28;20683;-72
2023/04/24 05:50:27;;;;;;;3.67;2.70;;;;;;;9.22;86.32;99457.00;5027817;28;20579;-72
2023/04/24 05:52:53;;;;;;;4.03;2.83;;;;;;;9.45;85.36;99475.56;5030779;28;20222;-72
2023/04/24 05:55:20;;;;;;;3.83;3.10;;;;;;;9.91;82.45;99476.53;5027097;28;20341;-71
2023/04/24 05:57:47;;;;;;;3.40;2.87;;;;;;;10.18;81.59;99476.56;5019764;28;20281;-73
2023/04/24 06:00:13;;;;;;;4.20;2.80;;;;;;;10.48;79.20;99482.78;5013641;28;20197;-71
2023/04/24 06:02:40;;;;;;;3.77;2.80;;;;;;;10.63;79.17;99482.75;5016204;28;20245;-71
2023/04/24 06:05:08;;;;;;;3.70;2.80;;;;;;;10.85;77.84;99486.25;5009692;28;20204;-72
2023/04/24 06:07:34;;;;;;;5.17;2.50;;;;;;;10.91;77.72;99483.59;5028594;28;20681;-71
2023/04/24 06:10:01;;;;;;;3.97;2.70;;;;;;;10.80;78.00;99480.06;5023393;28;20239;-72
2023/04/24 06:12:27;;;;;;;3.90;2.73;;;;;;;10.71;78.28;99488.91;5030637;28;20216;-73
2023/04/24 06:14:55;;;;;;;3.00;2.70;;;;;;;10.68;78.42;99487.16;5019212;28;20200;-73
2023/04/24 06:17:21;;;;;;;5.13;2.80;;;;;;;10.55;78.98;99503.94;5024371;28;20204;-72
2023/04/24 06:19:48;;;;;;;4.03;2.80;;;;;;;10.73;78.81;99495.09;5020563;28;20205;-74
2023/04/24 06:22:15;;;;;;;4.57;2.80;;;;;;;11.01;78.56;99497.69;5024365;28;20699;-73
2023/04/24 06:24:41;;;;;;;6.30;3.20;;;;;;;11.10;77.06;99498.53;5008217;28;20228;-73
2023/04/24 06:27:07;;;;;;;3.20;2.90;;;;;;;11.27;76.64;99509.09;5029317;28;20196;-73
2023/04/24 06:29:34;;;;;;;3.63;3.00;;;;;;;11.51;75.25;99505.44;5015236;28;20807;-74
2023/04/24 06:32:00;;;;;;;4.47;3.00;;;;;;;11.63;74.69;99505.41;5022940;28;20716;-73
2023/04/24 06:34:26;;;;;;;3.83;2.83;;;;;;;11.86;74.57;99506.19;5026151;28;20207;-73
2023/04/24 06:36:54;;;;;;;3.63;2.80;;;;;;;11.99;73.35;99506.97;5027013;28;20206;-73
2023/04/24 06:39:21;;;;;;;3.73;2.77;;;;;;;12.12;73.50;99499.84;5025237;28;20225;-72
2023/04/24 06:41:47;;;;;;;3.37;2.70;;;;;;;12.28;73.42;99508.53;5020052;28;20227;-73
2023/04/24 06:44:14;;;;;;;3.97;2.53;;;;;;;12.44;71.71;99496.94;5018945;28;20260;-73
2023/04/24 06:46:41;;;;;;;3.03;2.63;;;;;;;12.07;72.34;99506.94;5024802;28;20238;-74
2023/04/24 06:49:07;;;;;;;3.17;2.87;;;;;;;12.07;72.43;99504.28;5027056;28;20209;-74
2023/04/24 06:51:33;;;;;;;5.50;2.70;;;;;;;11.98;73.77;99505.22;5026815;28;20256;-73
2023/04/24 06:54:00;;;;;;;3.50;2.43;;;;;;;12.03;73.19;99495.47;5022342;28;20801;-74
2023/04/24 06:56:28;;;;;;;4.30;2.80;;;;;;;12.40;73.22;99501.34;5028158;28;20371;-74
2023/04/24 06:58:55;;;;;;;4.23;2.57;;;;;;;12.58;72.17;99499.44;5017501;28;22375;-72
2023/04/24 07:01:21;;;;;;;3.27;2.70;;;;;;;12.61;72.23;99496.78;5029052;28;20662;-73
2023/04/24 07:03:47;;;;;;;3.00;2.60;;;;;;;12.52;72.64;99500.41;5007714;28;20196;-72
2023/04/24 07:06:16;;;;;;;3.20;2.90;;;;;;;12.20;72.68;99495.34;5028664;28;20205;-73
2023/04/24 07:08:42;;;;;;;6.50;2.37;;;;;;;12.58;72.21;99487.06;5025486;28;20258;-73
2023/04/24 07:11:08;;;;;;;3.17;2.53;;;;;;;12.59;72.03;99487.94;5029854;28;20654;-73
2023/04/24 07:13:35;;;;;;;2.97;2.50;;;;;;;13.52;66.90;99500.22;5027944;28;20249;-73
2023/04/24 07:16:01;;;;;;;3.00;2.50;;;;;;;14.49;62.73;99472.19;5026885;28;20675;-72
2023/04/24 07:18:28;;;;;;;2.83;2.50;;;;;;;15.77;57.58;99488.34;5029558;28;20576;-72
2023/04/24 07:20:54;;;;;;;4.13;2.43;;;;;;;15.11;58.00;99496.78;5033648;28;20203;-72
2023/04/24 07:23:21;;;;;;;4.43;2.30;;;;;;;14.66;59.50;99493.19;5026195;28;20232;-75
2023/04/24 07:25:47;;;;;;;3.10;2.47;;;;;;;15.45;57.36;99483.66;5031588;28;20662;-74
2023/04/24 07:28:13;;;;;;;2.90;2.47;;;;;;;16.24;53.96;99503.28;5026723;28;20193;-76
2023/04/24 07:30:40;;;;;;;3.23;2.77;;;;;;;16.82;51.02;99482.28;5012320;28;20267;-74
2023/04/24 07:33:06;;;;;;;2.97;2.43;;;;;;;16.51;52.30;99498.19;5026931;28;20230;-74
2023/04/24 07:35:33;;;;;;;4.47;2.57;;;;;;;16.59;51.46;99493.53;5026860;28;20235;-78
2023/04/24 07:38:00;;;;;;;3.60;2.47;;;;;;;15.33;55.36;99491.94;5027612;28;20203;-82
2023/04/24 07:40:26;;;;;;;3.80;2.50;;;;;;;14.99;56.30;99484.59;5028039;28;20662;-84
2023/04/24 07:42:53;;;;;;;3.57;2.60;;;;;;;15.89;53.65;99487.19;5028493;28;20248;-82
2023/04/24 07:45:19;;;;;;;5.77;2.60;;;;;;;16.03;52.94;99487.78;5027020;28;20264;-82
2023/04/24 07:47:45;;;;;;;2.83;2.50;;;;;;;14.82;55.42;99508.03;5029411;28;20202;-84
2023/04/24 07:50:13;;;;;;;6.93;3.83;;;;;;;14.75;56.95;99493.03;5020842;28;20192;-84
2023/04/24 07:52:39;;;;;;;3.63;2.60;;;;;;;14.85;56.25;99496.44;5022141;28;20334;-85
2023/04/24 07:55:06;;;;;;;4.83;2.73;;;;;;;14.13;59.59;99502.91;5004200;28;20242;-81
2023/04/24 07:57:33;;;;;;;2.93;2.53;;;;;;;14.28;58.02;99496.47;5017024;28;20204;-84
2023/04/24 07:59:59;;;;;;;5.23;2.97;;;;;;;14.52;57.12;99489.91;5022983;28;20200;-84
2023/04/24 08:02:26;;;;;;;3.37;2.63;;;;;;;15.19;55.82;99480.63;5020450;28;20571;-84
2023/04/24 08:04:55;;;;;;;5.13;3.00;;;;;;;15.74;54.73;99499.09;5013897;28;20202;-85
2023/04/24 08:07:24;;;;;;;3.50;2.80;;;;;;;15.91;52.23;99490.69;5019666;28;20664;-80
2023/04/24 08:09:51;;;;;;;6.53;3.20;;;;;;;15.22;53.08;99500.16;5024561;28;20307;-78
2023/04/24 08:12:17;;;;;;;4.90;2.50;;;;;;;14.86;54.12;99491.06;5015823;28;20262;-79
2023/04/24 08:14:43;;;;;;;2.93;2.57;;;;;;;14.50;54.88;99497.03;5019301;28;20598;-79
2023/04/24 08:17:10;;;;;;;5.00;2.80;;;;;;;14.27;56.02;99511.56;5021363;28;20208;-77
2023/04/24 08:19:36;;;;;;;2.80;2.50;;;;;;;13.66;57.50;99515.13;5021199;28;20214;-79
2023/04/24 08:22:04;;;;;;;3.70;2.50;;;;;;;13.55;58.12;99511.69;5018310;28;20687;-81
2023/04/24 08:24:30;;;;;;;3.80;2.60;;;;;;;13.58;58.99;99516.97;5018729;28;20204;-85
2023/04/24 08:26:57;;;;;;;3.67;2.20;;;;;;;13.23;59.72;99530.72;5019754;28;20231;-85
2023/04/24 08:29:24;;;;;;;4.23;2.40;;;;;;;13.14;61.00;99523.69;5016951;28;20210;-82
2023/04/24 08:31:50;;;;;;;5.23;2.87;;;;;;;12.76;62.48;99537.34;5018984;28;20308;-83
2023/04/24 08:34:17;;;;;;;2.90;2.50;;;;;;;12.60;62.92;99546.34;5017692;28;21136;-84
2023/04/24 08:36:43;;;;;;;5.27;2.57;;;;;;;12.35;64.93;99540.34;5015445;28;20202;-80
2023/04/24 08:39:14;;;;;;;4.53;2.50;;;;;;;12.32;65.50;99542.16;5018943;28;20256;-82
2023/04/24 08:41:45;;;;;;;3.30;2.50;;;;;;;12.40;65.75;99553.59;5021252;28;20218;-82
2023/04/24 08:44:14;;;;;;;3.63;2.30;;;;;;;12.30;66.27;99550.13;5018667;28;20196;-82
2023/04/24 08:46:42;;;;;;;3.20;2.50;;;;;;;12.26;66.21;99559.00;5018181;28;20216;-76
2023/04/24 08:49:09;;;;;;;2.83;2.53;;;;;;;12.18;66.12;99559.06;5019005;28;20191;-74
2023/04/24 08:51:37;;;;;;;4.90;2.30;;;;;;;12.43;65.94;99557.13;5017960;28;20634;-75
2023/04/24 08:54:04;;;;;;;2.40;2.20;;;;;;;12.73;65.10;99558.63;5017722;28;20221;-75
2023/04/24 08:56:33;;;;;;;9.07;2.40;;;;;;;12.82;65.02;99549.72;5018129;28;20202;-77
2023/04/24 08:59:00;;;;;;;2.23;2.00;;;;;;;13.06;62.86;99551.25;5021246;28;20197;-78
2023/04/24 09:01:28;;;;;;;2.77;2.20;;;;;;;12.84;62.88;99556.78;5010964;28;23765;-79
2023/04/24 09:03:55;;;;;;;2.97;2.20;;;;;;;12.97;63.16;99560.19;5020873;28;20486;-80
2023/04/24 09:06:23;;;;;;;3.00;2.13;;;;;;;12.82;63.95;99569.19;5018793;28;20258;-83
2023/04/24 09:08:53;;;;;;;2.60;2.20;;;;;;;12.71;64.64;99567.50;5020195;28;20234;-85
2023/04/24 09:11:20;;;;;;;2.87;2.20;;;;;;;12.60;65.08;99567.59;5021783;28;20226;-75
2023/04/24 09:13:48;;;;;;;2.60;2.20;;;;;;;12.69;64.88;99575.50;5023632;28;20215;-80
2023/04/24 09:16:14;;;;;;;2.90;2.30;;;;;;;12.68;64.83;99564.88;5023696;28;20289;-83
2023/04/24 09:18:41;;;;;;;3.17;2.10;;;;;;;12.60;65.04;99574.69;5019364;28;20663;-77
2023/04/24 09:21:09;;;;;;;2.77;2.00;;;;;;;12.62;65.49;99578.22;5019667;28;20345;-79
2023/04/24 09:23:35;;;;;;;2.83;2.20;;;;;;;12.64;65.24;99581.75;5019605;28;20784;-85
2023/04/24 09:26:04;;;;;;;2.70;2.13;;;;;;;12.82;65.14;99576.28;5021715;28;20233;-84
2023/04/24 09:28:39;;;;;;;3.20;2.20;;;;;;;13.04;64.76;99576.97;5022011;28;20264;-80
2023/04/24 09:31:11;;;;;;;3.10;2.40;;;;;;;13.27;64.08;99575.00;5019262;28;20736;-83
2023/04/24 09:33:38;;;;;;;3.43;2.07;;;;;;;13.37;63.20;99578.44;5021078;28;20246;-83
2023/04/24 09:36:05;;;;;;;4.00;1.90;;;;;;;13.33;63.17;99584.69;5021544;28;20286;-83
2023/04/24 09:38:38;;;;;;;3.90;2.00;;;;;;;13.08;63.77;99594.63;5022415;28;20308;-82
2023/04/24 09:41:07;;;;;;;3.23;2.03;;;;;;;12.99;64.11;99592.94;5023146;28;20569;-83
2023/04/24 09:43:34;;;;;;;3.03;2.07;;;;;;;13.02;65.28;99590.25;5020187;28;20324;-82
2023/04/24 09:46:06;;;;;;;3.00;1.97;;;;;;;13.04;65.26;99587.59;5022803;28;20191;-84
2023/04/24 09:48:35;;;;;;;5.50;2.50;;;;;;;13.00;66.51;99593.84;5020929;28;20564;-83
2023/04/24 09:51:03;;;;;;;2.20;2.00;;;;;;;12.89;66.09;99598.38;5022492;28;20199;-82
2023/04/24 09:53:30;;;;;;;6.30;2.07;;;;;;;12.60;67.54;99594.16;5020156;28;20230;-83
2023/04/24 09:56:08;;;;;;;3.70;2.07;;;;;;;12.37;72.04;99612.03;5019487;28;20630;-83
2023/04/24 09:58:35;;;;;;;3.37;2.23;;;;;;;12.12;73.54;99613.97;5022589;28;20202;-78
2023/04/24 10:01:02;;;;;;;2.93;2.43;;;;;;;11.94;76.18;99612.25;5022016;28;20202;-78
2023/04/24 10:03:33;;;;;;;4.93;2.30;;;;;;;11.96;75.81;99617.56;5021244;28;20336;-77
2023/04/24 10:06:01;;;;;;;2.33;1.90;;;;;;;12.16;74.34;99618.34;5021535;28;20202;-75
2023/04/24 10:08:33;;;;;;;2.50;2.00;;;;;;;12.10;72.96;99621.94;5021085;28;20293;-77
2023/04/24 10:11:00;;;;;;;3.57;2.17;;;;;;;12.43;72.32;99623.50;5020337;28;20212;-74
2023/04/24 10:13:27;;;;;;;2.00;1.80;;;;;;;12.28;75.75;99628.91;5005161;28;20683;-71
2023/04/24 10:15:54;;;;;;;3.93;1.90;;;;;;;12.47;74.89;99625.25;5022228;28;20299;-74
2023/04/24 10:18:21;;;;;;;2.60;2.00;;;;;;;12.68;73.89;99637.50;5017277;28;20572;-74
2023/04/24 10:20:48;;;;;;;3.67;1.80;;;;;;;12.26;77.84;99646.59;5008274;28;20199;-75
2023/04/24 10:23:15;;;;;;;2.60;1.90;;;;;;;12.26;79.73;99648.38;5003810;28;20245;-75
2023/04/24 10:25:41;;;;;;;2.70;2.03;;;;;;;12.27;83.10;99659.00;5021118;28;20204;-74
2023/04/24 10:28:10;;;;;;;2.27;1.77;;;;;;;12.45;80.78;99672.19;5012172;28;20733;-74
2023/04/24 10:30:37;;;;;;;2.77;1.80;;;;;;;12.53;81.75;99669.47;5016818;28;20341;-74
2023/04/24 10:33:06;;;;;;;3.40;1.80;;;;;;;12.73;80.65;99675.53;5018925;28;20228;-74
2023/04/24 10:35:38;;;;;;;1.70;1.60;;;;;;;12.89;80.23;99671.00;5018460;28;20767;-77
2023/04/24 10:38:15;;;;;;;4.00;1.80;;;;;;;13.44;80.01;99659.91;5018938;28;20263;-76
2023/04/24 10:40:42;;;;;;;3.07;1.50;;;;;;;14.07;74.26;99658.31;5019099;28;20629;-77
2023/04/24 10:43:11;;;;;;;1.83;1.33;;;;;;;14.52;71.49;99663.97;5012986;28;20239;-81
2023/04/24 10:45:39;;;;;;;2.20;1.70;;;;;;;14.84;67.17;99658.16;5008002;28;20200;-82
2023/04/24 10:48:13;;;;;;;2.13;1.10;;;;;;;15.01;64.96;99661.44;5023200;28;20195;-80
2023/04/24 10:50:51;;;;;;;1.17;1.07;;;;;;;15.31;62.99;99667.16;5018230;28;20605;-77
2023/04/24 10:53:26;;;;;;;1.53;1.10;;;;;;;15.80;61.33;99668.97;5020039;28;20224;-74
2023/04/24 10:56:05;;;;;;;1.47;1.07;;;;;;;16.37;59.69;99674.88;5019826;28;20579;-72
2023/04/24 10:58:40;;;;;;;1.17;1.07;;;;;;;16.68;57.02;99668.91;5018505;28;20207;-73
2023/04/24 11:01:07;;;;;;;1.20;1.10;;;;;;;15.94;56.42;99672.22;5018407;28;20191;-72
2023/04/24 11:03:35;;;;;;;1.20;1.10;;;;;;;15.44;59.54;99679.38;5019880;28;20635;-73
2023/04/24 11:06:08;;;;;;;4.83;1.60;;;;;;;14.76;64.38;99684.03;5021541;28;20202;-77
2023/04/24 11:08:42;;;;;;;1.93;1.70;;;;;;;14.16;68.84;99685.72;5020040;28;20196;-78
2023/04/24 11:11:13;;;;;;;2.13;1.60;;;;;;;14.25;68.54;99680.28;5018176;28;20285;-72
2023/04/24 11:14:09;;;;;;;2.60;1.50;;;;;;;14.32;69.17;99685.50;5021181;28;20223;-73
2023/04/24 11:16:42;;;;;;;2.60;1.77;;;;;;;14.15;67.68;99686.63;5001299;28;20227;-74
2023/04/24 11:19:15;;;;;;;2.00;1.63;;;;;;;14.10;68.12;99679.59;5019139;28;20208;-74
2023/04/24 11:21:51;;;;;;;2.10;1.40;;;;;;;14.08;65.87;99669.84;5003854;28;20274;-73
2023/04/24 11:24:25;;;;;;;2.50;1.67;;;;;;;14.64;66.23;99674.44;5019478;28;20541;-74
2023/04/24 11:27:05;;;;;;;2.67;1.80;;;;;;;14.93;63.52;99679.34;5003236;28;20713;-76
2023/04/24 11:29:46;;;;;;;3.70;2.50;;;;;;;14.83;59.11;99674.19;5022233;28;20215;-73
2023/04/24 11:32:19;;;;;;;4.53;1.63;;;;;;;15.33;61.92;99666.22;5015192;28;20299;-79